Time;durP1;ratioP1;P1;durP2;ratioP2;P2;SDS_P1;SDS_P2;PMS_P1;PMS_P2;Temp;Humidity;BMP_temperature;BMP_pressure;BME280_temperature;BME280_humidity;BME280_pressure;Samples;Min_cycle;Max_cycle;Signal;HPM_P1;HPM_P2
2023/10/09 04:12:25;;;;;;;6.12;2.75;;;;;;;13.29;52.83;101465.75;5583579;31;33403;-56
2023/10/09 04:15:30;;;;;;;6.87;2.35;;;;;;;12.69;53.17;101478.91;5587500;31;33631;-57
2023/10/09 04:18:33;;;;;;;3.97;2.25;;;;;;;12.74;52.52;101478.09;5583708;32;33587;-56
2023/10/09 04:21:37;;;;;;;7.90;2.40;;;;;;;12.76;52.93;101477.84;5583710;31;34232;-56
2023/10/09 04:24:44;;;;;;;6.05;2.60;;;;;;;12.78;55.59;101473.81;5595290;31;33577;-56
2023/10/09 04:27:46;;;;;;;3.72;2.15;;;;;;;12.86;55.19;101462.50;5587122;31;33545;-54
2023/10/09 04:30:55;;;;;;;4.18;2.03;;;;;;;12.85;52.25;101462.78;5583484;31;33642;-55
2023/10/09 04:34:22;;;;;;;4.87;2.20;;;;;;;12.89;51.52;101455.78;5583674;32;34228;-55
2023/10/09 04:37:37;;;;;;;3.45;1.83;;;;;;;12.85;55.43;101452.03;5564463;32;33514;-54
2023/10/09 04:40:51;;;;;;;4.28;2.35;;;;;;;13.02;50.83;101451.75;5564020;32;33423;-55
2023/10/09 04:44:16;;;;;;;4.30;2.15;;;;;;;13.01;55.23;101439.34;5564028;32;33903;-55
2023/10/09 04:53:43;;;;;;;7.05;2.45;;;;;;;13.16;48.80;101433.97;5565893;32;33744;-54
2023/10/09 04:56:52;;;;;;;5.85;2.10;;;;;;;13.24;48.73;101437.97;5572903;31;33606;-55
2023/10/09 04:59:58;;;;;;;4.25;2.10;;;;;;;13.22;49.34;101432.88;5569660;31;34291;-55
2023/10/09 05:03:12;;;;;;;6.28;2.10;;;;;;;13.28;53.63;101429.13;5578185;32;33617;-55
2023/10/09 05:06:21;;;;;;;4.35;2.28;;;;;;;13.34;58.66;101424.50;5582649;31;34458;-55
2023/10/09 05:09:24;;;;;;;4.20;1.95;;;;;;;13.32;51.79;101413.22;5576779;32;34340;-55
2023/10/09 05:12:27;;;;;;;4.68;1.95;;;;;;;13.31;54.79;101411.59;5573430;32;34212;-54
2023/10/09 05:15:34;;;;;;;4.90;1.98;;;;;;;13.34;62.79;101402.97;5565127;32;34274;-55
2023/10/09 05:18:37;;;;;;;4.85;1.87;;;;;;;13.27;53.07;101422.09;5561613;32;33405;-55
2023/10/09 05:24:47;;;;;;;7.40;2.12;;;;;;;13.52;58.52;101413.16;5553980;32;34250;-55
2023/10/09 05:27:55;;;;;;;3.50;1.95;;;;;;;13.42;49.38;101410.50;5563200;32;33613;-54
2023/10/09 05:34:33;;;;;;;6.00;2.42;;;;;;;13.41;60.48;101408.91;5521934;32;33659;-54
2023/10/09 05:37:43;;;;;;;4.40;2.22;;;;;;;13.36;48.60;101400.81;5561409;32;33206;-54
2023/10/09 05:40:53;;;;;;;6.20;2.45;;;;;;;13.40;48.03;101410.75;5556075;32;33634;-55
2023/10/09 05:47:29;;;;;;;7.65;2.30;;;;;;;13.30;65.39;101421.56;5558892;32;33990;-54
2023/10/09 05:50:35;;;;;;;5.32;2.45;;;;;;;13.30;48.73;101447.69;5552639;32;33761;-55
2023/10/09 06:06:56;;;;;;;17.27;3.15;;;;;;;13.61;49.47;101413.41;5566288;32;34264;-54
2023/10/09 06:10:10;;;;;;;4.93;1.90;;;;;;;13.65;47.41;101409.09;5564392;32;33541;-55
2023/10/09 06:13:37;;;;;;;7.78;2.35;;;;;;;13.61;48.28;101410.72;5568552;32;34347;-55
2023/10/09 06:16:41;;;;;;;7.47;1.60;;;;;;;13.72;51.90;101406.09;5567744;32;34353;-54
2023/10/09 06:19:44;;;;;;;4.65;2.22;;;;;;;13.84;63.94;101385.00;5563924;32;34338;-55
2023/10/09 06:22:56;;;;;;;5.10;2.42;;;;;;;13.81;55.02;101383.69;5563700;32;33511;-55
2023/10/09 06:26:23;;;;;;;4.93;2.05;;;;;;;13.77;47.98;101381.81;5563979;32;33685;-55
2023/10/09 06:29:36;;;;;;;8.48;2.35;;;;;;;13.62;47.13;101375.41;5566883;32;33320;-54
2023/10/09 06:36:08;;;;;;;4.32;2.00;;;;;;;13.62;58.94;101383.50;5540270;31;33502;-54
2023/10/09 06:42:40;;;;;;;3.97;1.98;;;;;;;13.80;49.19;101383.94;5558716;32;33666;-55
2023/10/09 06:45:54;;;;;;;;;;;;;;;13.74;64.97;101376.97;5550491;31;32188;-54
2023/10/09 06:48:57;;;;;;;8.85;2.83;;;;;;;13.65;56.33;101382.13;5554173;32;33948;-55
2023/10/09 06:52:15;;;;;;;4.65;1.98;;;;;;;13.92;53.23;101395.22;5558367;32;33700;-56
2023/10/09 06:55:19;;;;;;;8.63;2.25;;;;;;;13.86;46.28;101393.63;5567860;32;33562;-56
2023/10/09 06:58:28;;;;;;;4.70;1.90;;;;;;;14.20;58.18;101380.22;5562208;32;33679;-57
2023/10/09 07:01:42;;;;;;;4.30;1.90;;;;;;;14.12;52.13;101380.00;5563813;32;34361;-57
2023/10/09 07:07:54;;;;;;;4.57;1.83;;;;;;;14.01;46.39;101365.78;5564464;32;34279;-56
2023/10/09 07:15:01;;;;;;;6.25;2.62;;;;;;;14.31;64.30;101354.00;5549091;31;33682;-56
2023/10/09 07:17:55;;;;;;;5.18;2.00;;;;;;;14.21;52.75;101357.56;5552873;32;34413;-56
2023/10/09 07:21:01;;;;;;;5.95;2.08;;;;;;;14.09;42.36;101351.72;5559545;32;33719;-56
2023/10/09 07:24:14;;;;;;;3.78;1.80;;;;;;;13.91;42.95;101345.09;5563488;32;33608;-56
2023/10/09 07:27:17;;;;;;;4.22;1.77;;;;;;;13.76;41.56;101348.66;5565134;32;33570;-56
2023/10/09 07:36:56;;;;;;;7.05;1.87;;;;;;;14.03;48.99;101310.50;5565330;31;33905;-56
2023/10/09 07:40:06;;;;;;;4.15;1.92;;;;;;;14.23;53.08;101282.56;5562697;32;34282;-56
2023/10/09 07:43:16;;;;;;;4.37;1.73;;;;;;;14.51;48.40;101277.50;5557000;32;33538;-57
2023/10/09 07:46:32;;;;;;;4.15;1.77;;;;;;;14.64;51.07;101262.56;5562340;32;33637;-57
2023/10/09 07:49:37;;;;;;;4.22;1.90;;;;;;;14.69;46.39;101275.97;5561385;32;34340;-56
2023/10/09 07:52:44;;;;;;;3.85;1.70;;;;;;;14.68;56.09;101255.50;5549600;32;33585;-56
2023/10/09 07:55:58;;;;;;;5.25;1.92;;;;;;;14.60;42.23;101240.72;5554888;32;33645;-56
2023/10/09 07:59:03;;;;;;;5.25;1.98;;;;;;;14.43;41.90;101249.22;5566616;32;34318;-57
2023/10/09 08:02:13;;;;;;;9.32;2.35;;;;;;;14.43;44.31;101243.81;5556747;32;33581;-57
2023/10/09 08:05:22;;;;;;;5.05;2.17;;;;;;;14.82;53.64;101256.41;5566329;32;34351;-57
2023/10/09 08:11:59;;;;;;;8.27;2.00;;;;;;;14.99;52.48;101256.75;5562844;32;34319;-57
2023/10/09 08:18:27;;;;;;;4.53;1.73;;;;;;;14.89;50.75;101248.75;5559335;32;33561;-57
2023/10/09 08:21:43;;;;;;;4.72;1.70;;;;;;;15.01;47.98;101235.66;5561449;32;33595;-57
2023/10/09 08:24:58;;;;;;;5.87;1.48;;;;;;;15.12;53.27;101228.22;5549898;32;33395;-57
2023/10/09 08:34:53;;;;;;;8.75;2.55;;;;;;;15.15;48.51;101211.44;5560458;32;32170;-57
2023/10/09 08:38:02;;;;;;;5.12;2.03;;;;;;;15.16;45.04;101201.44;5563077;32;33174;-57
2023/10/09 08:41:16;;;;;;;;;;;;;;;15.26;54.00;101212.13;5558381;32;33658;-57
2023/10/09 08:44:25;;;;;;;9.32;1.98;;;;;;;15.37;41.93;101197.38;5555037;32;34638;-57
2023/10/09 08:47:30;;;;;;;8.27;1.70;;;;;;;14.90;38.42;101204.50;5555217;32;34170;-57
2023/10/09 08:50:46;;;;;;;8.93;1.50;;;;;;;14.83;49.55;101206.72;5555990;32;33770;-57
2023/10/09 08:53:48;;;;;;;10.98;1.50;;;;;;;14.95;41.98;101195.53;5551867;32;34575;-57
2023/10/09 08:56:50;;;;;;;8.32;1.65;;;;;;;14.98;38.48;101181.44;5550777;32;33586;-57
2023/10/09 08:59:53;;;;;;;8.60;1.80;;;;;;;15.06;40.13;101185.38;5553396;32;34443;-57
2023/10/09 09:02:55;;;;;;;7.20;2.25;;;;;;;15.10;38.68;101186.41;5555575;32;33182;-57
2023/10/09 09:06:02;;;;;;;13.80;1.70;;;;;;;15.04;38.97;101191.88;5563479;32;33685;-57
2023/10/09 09:09:14;;;;;;;11.48;1.58;;;;;;;15.38;52.25;101171.97;5562940;32;34286;-56
2023/10/09 09:12:17;;;;;;;7.22;1.70;;;;;;;15.59;50.17;101177.84;5558630;32;32061;-57
2023/10/09 09:15:21;;;;;;;5.35;1.50;;;;;;;15.66;47.94;101153.16;5552860;32;33705;-56
2023/10/09 09:18:25;;;;;;;6.93;1.65;;;;;;;15.60;42.81;101151.66;5554053;32;34190;-56
2023/10/09 09:21:28;;;;;;;5.03;1.75;;;;;;;15.78;49.55;101158.13;5559614;32;34317;-56
2023/10/09 09:24:31;;;;;;;5.32;1.60;;;;;;;15.86;48.45;101155.56;5561466;32;32534;-57
2023/10/09 09:27:49;;;;;;;8.93;1.92;;;;;;;15.95;47.42;101158.38;5560241;32;33739;-57
2023/10/09 09:30:53;;;;;;;6.35;1.83;;;;;;;15.74;46.16;101150.62;5550829;32;33763;-56
2023/10/09 09:33:58;;;;;;;4.97;1.60;;;;;;;15.63;45.88;101153.75;5561529;32;34308;-56
2023/10/09 09:37:04;;;;;;;6.18;2.15;;;;;;;15.57;38.32;101136.81;5563194;31;33760;-57
2023/10/09 09:40:28;;;;;;;;;;;;;;;15.57;42.32;101139.53;5555704;32;34294;-56
2023/10/09 09:43:40;;;;;;;6.05;2.00;;;;;;;15.79;44.57;101143.50;5554455;32;34669;-57
2023/10/09 09:46:43;;;;;;;4.47;1.48;;;;;;;15.81;38.94;101149.44;5561420;32;34372;-56
2023/10/09 09:49:47;;;;;;;3.67;1.70;;;;;;;15.79;41.98;101138.09;5561235;32;34298;-56
2023/10/09 09:52:56;;;;;;;9.98;1.92;;;;;;;15.58;38.76;101130.31;5553490;32;33952;-57
2023/10/09 09:55:58;;;;;;;6.70;1.60;;;;;;;15.60;38.08;101132.75;5558371;32;33620;-56
2023/10/09 09:59:06;;;;;;;8.30;2.00;;;;;;;15.95;57.93;101129.44;5560714;32;34087;-56
2023/10/09 10:02:20;;;;;;;6.70;1.85;;;;;;;16.01;44.55;101137.47;5569064;32;34472;-57
2023/10/09 10:05:29;;;;;;;5.15;1.67;;;;;;;15.87;43.75;101130.12;5567378;32;33608;-56
2023/10/09 10:08:32;;;;;;;3.75;1.70;;;;;;;15.75;50.89;101121.69;5568814;32;33805;-56
2023/10/09 10:11:42;;;;;;;7.75;1.70;;;;;;;15.95;55.69;101110.50;5561101;32;33666;-56
2023/10/09 10:15:14;;;;;;;5.10;2.00;;;;;;;15.94;37.26;101091.88;5562152;32;33754;-57
2023/10/09 10:18:19;;;;;;;11.32;2.55;;;;;;;16.10;45.26;101060.75;5564801;32;33645;-57
2023/10/09 10:21:39;;;;;;;6.30;1.77;;;;;;;16.26;42.74;101053.13;5558530;32;34398;-57
2023/10/09 10:24:51;;;;;;;5.45;1.70;;;;;;;16.34;40.79;101022.66;5560688;32;33725;-57
2023/10/09 10:28:28;;;;;;;5.68;1.80;;;;;;;16.37;45.35;101016.63;5564575;32;34087;-57
2023/10/09 10:32:00;;;;;;;6.03;1.70;;;;;;;16.41;48.52;101022.25;5554553;32;33742;-57
2023/10/09 10:35:06;;;;;;;5.37;2.10;;;;;;;16.37;37.36;101007.72;5552314;32;33513;-57
2023/10/09 10:38:39;;;;;;;4.57;1.80;;;;;;;16.27;37.33;100991.72;5560228;32;34593;-57
2023/10/09 10:41:54;;;;;;;3.85;1.62;;;;;;;15.99;38.60;100978.19;5562432;32;33612;-58
2023/10/09 10:44:56;;;;;;;7.82;2.03;;;;;;;15.94;37.38;100987.22;5554969;32;33637;-58
2023/10/09 10:47:59;;;;;;;4.47;1.60;;;;;;;16.04;41.12;100980.03;5559315;32;33776;-59
2023/10/09 10:51:01;;;;;;;13.05;1.80;;;;;;;16.38;44.60;100976.84;5567724;32;33862;-58
2023/10/09 10:57:52;;;;;;;4.22;1.85;;;;;;;16.40;37.17;100936.78;5560379;32;33529;-59
2023/10/09 11:03:59;;;;;;;;;;;;;;;16.23;40.38;100948.25;5564365;32;33690;-58
2023/10/09 11:07:15;;;;;;;4.70;1.83;;;;;;;16.20;36.77;100952.34;5559826;32;33919;-59
2023/10/09 11:10:28;;;;;;;5.15;1.60;;;;;;;16.50;47.19;100935.72;5563207;32;33677;-59
2023/10/09 11:13:30;;;;;;;5.22;1.50;;;;;;;16.67;47.80;100952.09;5563084;32;33622;-59
2023/10/09 11:16:42;;;;;;;4.70;1.70;;;;;;;16.76;43.13;100927.84;5559434;32;33664;-58
2023/10/09 11:19:46;;;;;;;5.87;1.80;;;;;;;16.86;48.14;100903.22;5564133;32;32389;-58
2023/10/09 11:23:14;;;;;;;4.18;1.98;;;;;;;16.80;40.16;100950.47;5560254;32;33082;-59
2023/10/09 11:26:26;;;;;;;5.68;1.73;;;;;;;16.86;39.67;100982.53;5560252;32;33344;-57
2023/10/09 11:29:52;;;;;;;4.57;1.80;;;;;;;16.95;49.58;100950.09;5557959;32;33814;-56
2023/10/09 11:33:04;;;;;;;6.68;1.75;;;;;;;17.11;46.22;100918.78;5558158;32;33632;-58
2023/10/09 11:36:08;;;;;;;4.72;1.95;;;;;;;16.76;37.54;100914.31;5568420;31;33764;-56
2023/10/09 11:39:31;;;;;;;10.00;1.95;;;;;;;16.60;36.69;100933.59;5556163;32;33481;-56
2023/10/09 11:42:49;;;;;;;4.22;1.85;;;;;;;16.51;37.31;100937.31;5560477;32;34355;-56
2023/10/09 11:45:54;;;;;;;7.22;1.67;;;;;;;16.57;36.65;100936.91;5559017;32;34618;-57
2023/10/09 11:52:47;;;;;;;4.15;1.80;;;;;;;16.79;39.83;100971.34;5557450;32;33758;-56
2023/10/09 11:55:53;;;;;;;4.87;1.45;;;;;;;16.77;35.93;100960.00;5557663;32;33619;-57
2023/10/09 11:58:58;;;;;;;12.00;2.25;;;;;;;16.85;47.37;100948.47;5549632;32;32258;-56
2023/10/09 12:02:03;;;;;;;4.60;1.60;;;;;;;17.07;43.53;100931.38;5548498;32;33727;-57
2023/10/09 12:05:07;;;;;;;5.37;1.62;;;;;;;17.06;39.99;100918.16;5548908;32;34190;-56
2023/10/09 12:08:14;;;;;;;3.78;2.00;;;;;;;17.25;40.95;100888.94;5563562;32;34375;-57
2023/10/09 12:11:22;;;;;;;3.80;1.45;;;;;;;17.28;44.11;100888.28;5552566;32;33586;-56
2023/10/09 12:14:33;;;;;;;5.60;1.90;;;;;;;17.32;52.41;100883.06;5556830;32;34079;-56
2023/10/09 12:17:35;;;;;;;3.08;1.55;;;;;;;17.30;48.38;100885.25;5557529;32;34335;-56
2023/10/09 12:20:39;;;;;;;3.72;1.60;;;;;;;17.44;51.80;100877.81;5559963;32;33721;-57
2023/10/09 12:23:44;;;;;;;5.82;2.20;;;;;;;17.34;53.74;100859.94;5554955;32;33634;-57
2023/10/09 12:26:47;;;;;;;7.50;2.47;;;;;;;17.20;53.81;100858.44;5548989;32;34600;-57
2023/10/09 12:29:50;;;;;;;4.47;1.83;;;;;;;17.20;53.47;100856.53;5561309;32;33574;-56
2023/10/09 12:32:57;;;;;;;6.32;2.45;;;;;;;17.05;45.93;100854.22;5567016;32;33514;-57
2023/10/09 12:36:00;;;;;;;4.15;2.08;;;;;;;17.07;53.39;100849.31;5550876;32;33700;-56
2023/10/09 12:39:03;;;;;;;4.87;1.90;;;;;;;17.04;50.55;100845.31;5550354;32;33991;-59
2023/10/09 12:42:08;;;;;;;9.48;2.40;;;;;;;17.02;65.85;100842.12;5551603;32;33344;-59
2023/10/09 12:45:12;;;;;;;4.60;2.00;;;;;;;16.82;48.24;100848.06;5562313;32;33715;-59
2023/10/09 12:48:15;;;;;;;9.60;2.60;;;;;;;16.67;51.51;100839.19;5556906;32;34081;-59
2023/10/09 12:51:17;;;;;;;12.88;2.70;;;;;;;16.67;56.03;100839.19;5557849;32;33933;-59
2023/10/09 12:54:24;;;;;;;7.05;2.17;;;;;;;16.83;58.79;100850.47;5565592;32;34434;-59
2023/10/09 12:57:26;;;;;;;5.18;2.28;;;;;;;16.72;52.42;100862.66;5551227;32;34610;-59
2023/10/09 13:00:32;;;;;;;2.80;1.58;;;;;;;16.75;56.59;100856.63;5569192;32;33007;-59
2023/10/09 13:03:38;;;;;;;6.78;2.40;;;;;;;16.72;59.11;100845.59;5567307;32;34308;-59
2023/10/09 13:06:44;;;;;;;10.30;2.50;;;;;;;16.77;56.79;100837.37;5562767;32;33471;-59
2023/10/09 13:10:08;;;;;;;;;;;;;;;16.66;62.65;100834.91;5564112;32;33740;-59
2023/10/09 13:13:11;;;;;;;5.43;2.15;;;;;;;16.62;59.29;100839.34;5564003;32;33633;-59
2023/10/09 13:16:25;;;;;;;5.55;1.95;;;;;;;16.64;57.29;100844.44;5563685;32;33453;-59
2023/10/09 13:19:28;;;;;;;8.88;2.20;;;;;;;16.60;67.93;100840.75;5569349;32;33725;-59
2023/10/09 13:22:30;;;;;;;4.82;2.03;;;;;;;16.54;65.34;100829.25;5568043;32;34307;-59
2023/10/09 13:25:39;;;;;;;4.70;2.30;;;;;;;16.68;60.77;100827.25;5565320;32;35433;-58
2023/10/09 13:28:42;;;;;;;6.97;2.03;;;;;;;16.59;59.58;100822.94;5567202;32;33713;-59
2023/10/09 13:31:47;;;;;;;12.37;2.40;;;;;;;16.48;57.98;100818.88;5569239;32;33600;-59
2023/10/09 13:34:50;;;;;;;;;;;;;;;16.39;68.01;100821.50;5569477;31;34336;-57
2023/10/09 13:37:55;;;;;;;7.37;2.30;;;;;;;16.37;64.43;100821.81;5565246;32;33965;-57
2023/10/09 13:41:01;;;;;;;6.25;2.15;;;;;;;16.32;62.21;100815.72;5563272;32;33750;-57
2023/10/09 13:44:04;;;;;;;6.97;1.98;;;;;;;16.31;67.31;100819.56;5568871;32;33274;-57
2023/10/09 13:47:08;;;;;;;4.07;2.10;;;;;;;16.26;62.68;100836.72;5569291;32;33618;-57
2023/10/09 13:50:13;;;;;;;7.43;2.33;;;;;;;16.19;71.78;100833.63;5569556;32;33577;-57
2023/10/09 13:53:15;;;;;;;6.53;2.47;;;;;;;16.05;68.07;100828.25;5569802;32;33584;-57
2023/10/09 13:56:19;;;;;;;5.12;2.58;;;;;;;16.01;68.49;100826.47;5569708;32;34315;-56
2023/10/09 13:59:25;;;;;;;8.20;2.75;;;;;;;15.96;68.52;100825.50;5569368;32;33563;-57
2023/10/09 14:02:28;;;;;;;6.07;2.62;;;;;;;15.85;72.16;100818.69;5569619;32;34305;-57
2023/10/09 14:05:31;;;;;;;5.53;2.47;;;;;;;15.77;79.70;100815.94;5565148;32;33587;-57
2023/10/09 14:08:33;;;;;;;7.97;2.90;;;;;;;15.68;80.69;100805.03;5569359;32;34282;-57
2023/10/09 14:11:39;;;;;;;10.65;3.55;;;;;;;15.68;77.54;100794.22;5569636;32;33779;-57
2023/10/09 14:14:49;;;;;;;6.95;3.05;;;;;;;15.55;78.01;100776.91;5569241;32;33698;-57
2023/10/09 14:17:55;;;;;;;9.23;2.72;;;;;;;15.46;80.73;100773.31;5568901;32;34216;-57
2023/10/09 14:21:04;;;;;;;7.30;3.00;;;;;;;15.50;80.24;100780.53;5562916;32;33642;-57
2023/10/09 14:24:15;;;;;;;5.72;3.05;;;;;;;15.49;78.99;100784.31;5561414;32;33626;-57
2023/10/09 14:27:25;;;;;;;8.98;3.22;;;;;;;15.36;88.32;100785.13;5567557;32;33700;-57
2023/10/09 14:30:33;;;;;;;7.53;3.10;;;;;;;15.26;82.30;100786.16;5569109;32;34112;-57
2023/10/09 14:33:36;;;;;;;5.75;3.00;;;;;;;15.22;89.42;100778.94;5569331;32;34417;-57
2023/10/09 14:36:43;;;;;;;7.90;3.55;;;;;;;15.32;95.60;100786.06;5569178;32;34094;-57
2023/10/09 14:39:50;;;;;;;6.47;3.30;;;;;;;15.25;89.28;100789.16;5588947;31;33751;-57
2023/10/09 14:42:52;;;;;;;8.82;3.80;;;;;;;15.24;86.63;100796.47;5588974;31;34387;-57
2023/10/09 14:45:59;;;;;;;6.72;3.33;;;;;;;15.14;90.00;100798.56;5589091;31;34376;-57
2023/10/09 14:49:01;;;;;;;6.97;3.80;;;;;;;15.17;93.54;100800.69;5588949;31;33663;-57
2023/10/09 14:52:08;;;;;;;7.62;3.62;;;;;;;15.24;97.66;100806.47;5588017;31;33659;-57
2023/10/09 14:55:11;;;;;;;9.75;4.20;;;;;;;15.20;95.42;100786.56;5588865;31;33340;-57
2023/10/09 14:58:15;;;;;;;9.13;3.87;;;;;;;15.26;90.17;100790.75;5588974;31;34415;-55
2023/10/09 15:01:19;;;;;;;8.90;3.87;;;;;;;15.23;94.12;100796.75;5588998;31;33635;-54
2023/10/09 15:04:25;;;;;;;7.10;3.33;;;;;;;15.17;92.11;100782.56;5574609;31;34346;-55
2023/10/09 15:07:28;;;;;;;5.85;3.37;;;;;;;15.13;100.00;100780.75;5588388;31;34393;-54
2023/10/09 15:10:49;;;;;;;6.40;3.28;;;;;;;15.24;91.61;100776.75;5587764;31;33608;-55
2023/10/09 15:13:53;;;;;;;7.62;3.30;;;;;;;15.23;91.28;100773.28;5588765;31;34384;-55
2023/10/09 15:16:56;;;;;;;7.18;3.62;;;;;;;15.11;100.00;100772.16;5588267;31;33731;-55
2023/10/09 15:20:01;;;;;;;10.20;3.97;;;;;;;15.11;94.90;100770.25;5588847;31;33598;-54
2023/10/09 15:23:05;;;;;;;9.43;4.25;;;;;;;15.13;92.40;100765.38;5588597;31;34425;-54
2023/10/09 15:26:08;;;;;;;8.55;4.47;;;;;;;15.05;89.01;100757.97;5588788;31;33379;-54
2023/10/09 15:29:10;;;;;;;7.05;4.00;;;;;;;15.14;86.04;100761.56;5588604;31;33678;-54
2023/10/09 15:32:22;;;;;;;7.82;4.00;;;;;;;14.97;96.33;100759.47;5588611;31;33663;-55
2023/10/09 15:35:24;;;;;;;206.55;18.98;;;;;;;14.96;91.98;100762.47;5588456;31;33693;-54
2023/10/09 15:38:29;;;;;;;11.55;4.53;;;;;;;14.98;91.42;100765.66;5588394;31;33908;-54
2023/10/09 15:41:31;;;;;;;7.65;4.03;;;;;;;14.99;94.31;100759.97;5588475;31;34428;-54
2023/10/09 15:44:36;;;;;;;6.70;4.12;;;;;;;15.00;100.00;100739.97;5588454;31;34307;-55
2023/10/09 15:47:39;;;;;;;9.20;4.75;;;;;;;14.97;100.00;100750.56;5588611;31;33663;-54
2023/10/09 15:50:48;;;;;;;9.68;4.32;;;;;;;14.96;97.37;100752.44;5588325;31;33843;-55
